createdAt,value
2024-02-02T00:02:25.437Z,89
2024-02-02T00:12:25.669Z,89
2024-02-02T00:22:25.867Z,89
2024-02-02T00:32:26.072Z,89
2024-02-02T00:42:26.279Z,90
2024-02-02T00:52:26.505Z,90
2024-02-02T01:02:26.680Z,90
2024-02-02T01:12:26.947Z,89
2024-02-02T01:22:27.081Z,89
2024-02-02T01:32:27.304Z,89
2024-02-02T01:42:27.491Z,89
2024-02-02T01:52:27.683Z,89
2024-02-02T02:02:27.872Z,88
2024-02-02T02:12:28.199Z,88
2024-02-02T02:22:28.292Z,88
2024-02-02T02:32:28.587Z,88
2024-02-02T02:42:28.759Z,88
2024-02-02T02:52:28.898Z,88
2024-02-02T03:02:29.109Z,88
2024-02-02T03:12:29.392Z,88
2024-02-02T03:22:29.577Z,88
2024-02-02T03:32:29.732Z,87
2024-02-02T03:42:29.973Z,87
2024-02-02T03:52:30.148Z,87
2024-02-02T04:02:30.349Z,87
2024-02-02T04:12:30.693Z,87
2024-02-02T04:22:30.837Z,87
2024-02-02T04:32:30.956Z,87
2024-02-02T04:42:31.204Z,87
2024-02-02T04:52:31.410Z,86
2024-02-02T05:02:31.581Z,86
2024-02-02T05:12:31.805Z,85
2024-02-02T05:22:31.978Z,85
2024-02-02T05:32:32.214Z,85
2024-02-02T05:42:32.526Z,84
2024-02-02T05:52:32.586Z,84
2024-02-02T06:12:33.036Z,84
2024-02-02T06:22:33.219Z,84
2024-02-02T06:32:33.466Z,84
2024-02-02T06:42:33.680Z,83
2024-02-02T06:52:33.836Z,83
2024-02-02T07:02:34.099Z,83
2024-02-02T07:12:34.325Z,82
2024-02-02T07:22:34.430Z,82
2024-02-02T07:32:34.653Z,82
2024-02-02T07:42:44.586Z,82
2024-02-02T07:52:35.060Z,81
2024-02-02T08:02:35.271Z,81
2024-02-02T08:12:35.734Z,81
2024-02-02T08:22:35.645Z,81
2024-02-02T08:32:35.874Z,81
2024-02-02T08:42:36.089Z,81
2024-02-02T08:52:36.270Z,82
2024-02-02T09:02:36.520Z,81
2024-02-02T09:12:36.687Z,82
2024-02-02T09:22:36.877Z,82
2024-02-02T09:32:37.107Z,82
2024-02-02T09:42:37.344Z,82
2024-02-02T09:52:37.497Z,82
2024-02-02T10:12:37.946Z,83
2024-02-02T10:22:38.089Z,83
2024-02-02T10:32:38.305Z,83
2024-02-02T10:42:38.566Z,83
2024-02-02T10:52:38.789Z,83
2024-02-02T11:02:38.917Z,83
2024-02-02T11:12:39.119Z,83
2024-02-02T11:22:39.347Z,83
2024-02-02T11:32:39.544Z,84
2024-02-02T11:52:39.922Z,84
2024-02-02T12:02:40.119Z,84
2024-02-02T12:12:40.355Z,84
2024-02-02T12:22:40.534Z,84
2024-02-02T12:42:40.992Z,84
2024-02-02T12:52:41.145Z,84
2024-02-02T13:02:41.358Z,84
2024-02-02T13:12:41.556Z,85
2024-02-02T13:22:41.740Z,85
2024-02-02T13:32:42.006Z,85
2024-02-02T13:42:42.165Z,85
2024-02-02T13:52:42.369Z,85
2024-02-02T14:02:42.544Z,85
2024-02-02T14:12:42.879Z,86
2024-02-02T14:22:42.960Z,86
2024-02-02T14:32:43.180Z,86
2024-02-02T14:42:43.520Z,87
2024-02-02T14:52:43.564Z,87
2024-02-02T15:02:43.768Z,88
2024-02-02T15:12:43.982Z,88
2024-02-02T15:22:44.259Z,88
2024-02-02T15:32:44.400Z,88
2024-02-02T15:52:44.776Z,89
2024-02-02T16:02:44.973Z,89
2024-02-02T16:12:45.206Z,90
2024-02-02T16:22:45.447Z,90
2024-02-02T16:32:45.622Z,91
2024-02-02T16:42:45.929Z,91
2024-02-02T16:52:46.023Z,91
2024-02-02T17:02:46.196Z,91
2024-02-02T17:12:46.478Z,91
2024-02-02T17:22:46.611Z,91
2024-02-02T17:32:46.896Z,91
2024-02-02T17:42:47.079Z,91
2024-02-02T17:52:47.201Z,91
2024-02-02T18:02:47.409Z,91
2024-02-02T18:12:47.688Z,91
2024-02-02T18:22:47.813Z,91
2024-02-02T18:32:48.055Z,91
2024-02-02T18:42:48.304Z,91
2024-02-02T18:52:48.423Z,91
2024-02-02T19:02:48.636Z,91
2024-02-02T19:12:48.837Z,91
2024-02-02T19:22:49.061Z,91
2024-02-02T19:32:49.261Z,92
2024-02-02T19:52:49.631Z,91
2024-02-02T20:02:49.849Z,91
2024-02-02T20:12:50.113Z,91
2024-02-02T20:22:50.236Z,91
2024-02-02T20:32:50.503Z,91
2024-02-02T20:42:50.674Z,91
2024-02-02T20:52:50.855Z,91
2024-02-02T21:02:51.052Z,91
2024-02-02T21:12:51.332Z,91
2024-02-02T21:22:51.455Z,91
2024-02-02T21:32:51.700Z,91
2024-02-02T21:42:51.872Z,91
2024-02-02T21:52:52.059Z,91
2024-02-02T22:02:52.291Z,91
2024-02-02T22:12:52.498Z,91
2024-02-02T22:22:52.695Z,91
2024-02-02T22:32:52.972Z,91
2024-02-02T22:42:53.096Z,91
2024-02-02T22:52:53.295Z,91
2024-02-02T23:02:53.481Z,92
2024-02-02T23:12:53.733Z,92
2024-02-02T23:22:53.883Z,92
2024-02-02T23:32:54.090Z,92
2024-02-02T23:52:54.483Z,92
